Maersk Wllemstadt — 3FTJ8 — position and weather

sailwx.info

Track history (hours):
 
Tides and Currents Weather Stations Pressure Air Temp Water Temp Dewpoint Dewpoint Depression Visibility Wind Speed Wind Dir Waves Ship Positions

Maersk Wllemstadt

Last reported at 2018-Feb-12 17:12 UTC. Time now 2018-Feb-22 17:16 UTC.
Position N 11°16' W 074°16'.
Warning: this ship's position is 10 days out of date.

Length 171 m; draft 8.6 m.

Type: Ship (hazmat cat C). MMSI: 370209000.

Date/timePositionNaut miles runAvg speedWind from/ knotsBaromVisibWave heightAir tempDewpointWater temp
2018-Feb-12 17:12N 11°16' W 074°16'310.4
2018-Feb-12 16:56N 11°15' W 074°13'36 1.8
2018-Feb-11 21:22N 11°11' W 074°49'716.9
2018-Feb-11 20:58N 11°10' W 074°56'8 0.3
2018-Feb-10 19:44N 11°07' W 075°04'419.6
2018-Feb-10 19:30N 11°07' W 074°59'815.2
2018-Feb-10 19:00N 11°07' W 074°52'610.9
2018-Feb-10 18:29N 11°02' W 074°48'510.1
2018-Feb-10 18:00N 10°58' W 074°45'0 0.3
2018-Feb-10 17:28N 10°58' W 074°46'0 0.0
2018-Feb-10 16:58N 10°58' W 074°46'0 0.0
2018-Feb-10 16:28N 10°58' W 074°46'0 0.0
2018-Feb-10 15:55N 10°58' W 074°46'0 0.0
2018-Feb-10 15:28N 10°58' W 074°46'0 0.0
2018-Feb-10 14:58N 10°58' W 074°46'0 0.0
2018-Feb-10 13:37N 10°58' W 074°46'0 0.0
2018-Feb-10 13:22N 10°58' W 074°46'0 0.0
2018-Feb-10 12:58N 10°58' W 074°46'0 0.0
2018-Feb-10 12:28N 10°58' W 074°46'12 0.9
2018-Feb-09 22:29N 11°07' W 074°54'31312.3
2018-Feb-08 21:00N 09°23' W 079°54'1 0.1
2018-Feb-08 01:30N 09°22' W 079°53'0 0.0
2018-Feb-08 01:00N 09°22' W 079°53'0 0.0
2018-Feb-08 00:30N 09°22' W 079°53'0 0.0
2018-Feb-08 00:00N 09°22' W 079°53'0 0.0
2018-Feb-07 23:30N 09°22' W 079°53'0 0.0
2018-Feb-07 23:00N 09°22' W 079°53'0 0.0
2018-Feb-07 22:30N 09°22' W 079°53'0 0.0
2018-Feb-07 22:00N 09°22' W 079°53'0 0.0
2018-Feb-07 21:30N 09°22' W 079°53'21 1.7
2018-Feb-07 09:30N 09°42' W 079°49'343 9.8
2018-Feb-05 22:41N 11°15' W 074°13'0 0.3
2018-Feb-05 22:29N 11°15' W 074°13'1 1.9
2018-Feb-05 21:59N 11°15' W 074°14'1 2.6
2018-Feb-05 21:30N 11°14' W 074°15'4 7.3
2018-Feb-05 20:59N 11°14' W 074°19'1116.8
2018-Feb-05 20:19N 11°13' W 074°30'617.8
2018-Feb-05 19:59N 11°12' W 074°36'17 1.4
2018-Feb-05 07:45N 10°58' W 074°46'0 0.0
2018-Feb-05 07:30N 10°58' W 074°46'0 0.0
2018-Feb-05 07:00N 10°58' W 074°46'0 0.0
2018-Feb-05 06:30N 10°58' W 074°46'0 0.0
2018-Feb-05 05:30N 10°58' W 074°46'0 0.0
2018-Feb-05 05:00N 10°58' W 074°46'0 0.0
2018-Feb-05 04:30N 10°58' W 074°46'0 0.0
2018-Feb-05 04:00N 10°58' W 074°46'0 0.0
2018-Feb-05 03:30N 10°58' W 074°46'0 0.0
2018-Feb-05 03:00N 10°58' W 074°46'0 0.0
2018-Feb-05 02:30N 10°58' W 074°46'0 0.0
2018-Feb-05 02:00N 10°58' W 074°46'0 0.0
2018-Feb-05 01:30N 10°58' W 074°46'0 0.0
2018-Feb-05 01:00N 10°58' W 074°46'0 0.0
2018-Feb-05 00:30N 10°58' W 074°46'0 0.0
2018-Feb-05 00:00N 10°58' W 074°46'0 0.0
2018-Feb-04 23:30N 10°58' W 074°46'0 0.0
2018-Feb-04 23:00N 10°58' W 074°46'0 0.0
2018-Feb-04 22:30N 10°58' W 074°46'0 0.0
2018-Feb-04 22:00N 10°58' W 074°46'0 0.0
2018-Feb-04 21:30N 10°58' W 074°46'0 0.0
2018-Feb-04 21:00N 10°58' W 074°46'0 0.0
2018-Feb-04 20:00N 10°58' W 074°46'0 0.0
2018-Feb-04 19:30N 10°58' W 074°46'0 0.0
2018-Feb-04 19:00N 10°58' W 074°46'0 0.0
2018-Feb-04 18:30N 10°58' W 074°46'0 0.0
2018-Feb-04 18:00N 10°58' W 074°46'0 0.0
2018-Feb-04 17:27N 10°58' W 074°46'3 1.4
2018-Feb-04 15:30N 11°01' W 074°46'4 7.9
2018-Feb-04 15:00N 11°03' W 074°50'4 8.1
2018-Feb-04 14:30N 11°06' W 074°51'4 7.3
2018-Feb-04 14:00N 11°07' W 074°55'2 3.7
2018-Feb-04 13:31N 11°07' W 074°57'2 4.3
2018-Feb-04 13:00N 11°07' W 074°59'2 4.5
2018-Feb-04 12:31N 11°07' W 075°01'2 4.0
2018-Feb-04 12:01N 11°07' W 075°03'1 2.3
2018-Feb-04 11:28N 11°07' W 075°04'  
Track history (hours):
 
Tides and Currents Weather Stations Pressure Air Temp Water Temp Dewpoint Dewpoint Depression Visibility Wind Speed Wind Dir Waves Ship Positions

Maersk Wllemstadt

Last reported at 2018-Feb-12 17:12 UTC. Time now 2018-Feb-22 17:16 UTC.
Position N 11°16' W 074°16'.
Warning: this ship's position is 10 days out of date.

Length 171 m; draft 8.6 m.

Type: Ship (hazmat cat C). MMSI: 370209000.

Date/timePositionNaut miles runAvg speedWind from/ knotsBaromVisibWave heightAir tempDewpointWater temp
2018-Feb-12 17:12N 11°16' W 074°16'310.4
2018-Feb-12 16:56N 11°15' W 074°13'36 1.8
2018-Feb-11 21:22N 11°11' W 074°49'716.9
2018-Feb-11 20:58N 11°10' W 074°56'8 0.3
2018-Feb-10 19:44N 11°07' W 075°04'419.6
2018-Feb-10 19:30N 11°07' W 074°59'815.2
2018-Feb-10 19:00N 11°07' W 074°52'610.9
2018-Feb-10 18:29N 11°02' W 074°48'510.1
2018-Feb-10 18:00N 10°58' W 074°45'0 0.3
2018-Feb-10 17:28N 10°58' W 074°46'0 0.0
2018-Feb-10 16:58N 10°58' W 074°46'0 0.0
2018-Feb-10 16:28N 10°58' W 074°46'0 0.0
2018-Feb-10 15:55N 10°58' W 074°46'0 0.0
2018-Feb-10 15:28N 10°58' W 074°46'0 0.0
2018-Feb-10 14:58N 10°58' W 074°46'0 0.0
2018-Feb-10 13:37N 10°58' W 074°46'0 0.0
2018-Feb-10 13:22N 10°58' W 074°46'0 0.0
2018-Feb-10 12:58N 10°58' W 074°46'0 0.0
2018-Feb-10 12:28N 10°58' W 074°46'12 0.9
2018-Feb-09 22:29N 11°07' W 074°54'31312.3
2018-Feb-08 21:00N 09°23' W 079°54'1 0.1
2018-Feb-08 01:30N 09°22' W 079°53'0 0.0
2018-Feb-08 01:00N 09°22' W 079°53'0 0.0
2018-Feb-08 00:30N 09°22' W 079°53'0 0.0
2018-Feb-08 00:00N 09°22' W 079°53'0 0.0
2018-Feb-07 23:30N 09°22' W 079°53'0 0.0
2018-Feb-07 23:00N 09°22' W 079°53'0 0.0
2018-Feb-07 22:30N 09°22' W 079°53'0 0.0
2018-Feb-07 22:00N 09°22' W 079°53'0 0.0
2018-Feb-07 21:30N 09°22' W 079°53'21 1.7
2018-Feb-07 09:30N 09°42' W 079°49'343 9.8
2018-Feb-05 22:41N 11°15' W 074°13'0 0.3
2018-Feb-05 22:29N 11°15' W 074°13'1 1.9
2018-Feb-05 21:59N 11°15' W 074°14'1 2.6
2018-Feb-05 21:30N 11°14' W 074°15'4 7.3
2018-Feb-05 20:59N 11°14' W 074°19'1116.8
2018-Feb-05 20:19N 11°13' W 074°30'617.8
2018-Feb-05 19:59N 11°12' W 074°36'17 1.4
2018-Feb-05 07:45N 10°58' W 074°46'0 0.0
2018-Feb-05 07:30N 10°58' W 074°46'0 0.0
2018-Feb-05 07:00N 10°58' W 074°46'0 0.0
2018-Feb-05 06:30N 10°58' W 074°46'0 0.0
2018-Feb-05 05:30N 10°58' W 074°46'0 0.0
2018-Feb-05 05:00N 10°58' W 074°46'0 0.0
2018-Feb-05 04:30N 10°58' W 074°46'0 0.0
2018-Feb-05 04:00N 10°58' W 074°46'0 0.0
2018-Feb-05 03:30N 10°58' W 074°46'0 0.0
2018-Feb-05 03:00N 10°58' W 074°46'0 0.0
2018-Feb-05 02:30N 10°58' W 074°46'0 0.0
2018-Feb-05 02:00N 10°58' W 074°46'0 0.0
2018-Feb-05 01:30N 10°58' W 074°46'0 0.0
2018-Feb-05 01:00N 10°58' W 074°46'0 0.0
2018-Feb-05 00:30N 10°58' W 074°46'0 0.0
2018-Feb-05 00:00N 10°58' W 074°46'0 0.0
2018-Feb-04 23:30N 10°58' W 074°46'0 0.0
2018-Feb-04 23:00N 10°58' W 074°46'0 0.0
2018-Feb-04 22:30N 10°58' W 074°46'0 0.0
2018-Feb-04 22:00N 10°58' W 074°46'0 0.0
2018-Feb-04 21:30N 10°58' W 074°46'0 0.0
2018-Feb-04 21:00N 10°58' W 074°46'0 0.0
2018-Feb-04 20:00N 10°58' W 074°46'0 0.0
2018-Feb-04 19:30N 10°58' W 074°46'0 0.0
2018-Feb-04 19:00N 10°58' W 074°46'0 0.0
2018-Feb-04 18:30N 10°58' W 074°46'0 0.0
2018-Feb-04 18:00N 10°58' W 074°46'0 0.0
2018-Feb-04 17:27N 10°58' W 074°46'3 1.4
2018-Feb-04 15:30N 11°01' W 074°46'4 7.9
2018-Feb-04 15:00N 11°03' W 074°50'4 8.1
2018-Feb-04 14:30N 11°06' W 074°51'4 7.3
2018-Feb-04 14:00N 11°07' W 074°55'2 3.7
2018-Feb-04 13:31N 11°07' W 074°57'2 4.3
2018-Feb-04 13:00N 11°07' W 074°59'2 4.5
2018-Feb-04 12:31N 11°07' W 075°01'2 4.0
2018-Feb-04 12:01N 11°07' W 075°03'1 2.3
2018-Feb-04 11:28N 11°07' W 075°04'  

Dump ship's entire track history